Orbital elements of LATINSAT A
| Launched | 19 December 2002 |
| Flight ended | – |
| Launch site | Tyuratam Missile and Space Center, Kazakhstan (Also known as Baikonur Cosmodrome) |
| Owner | Argentina |
| NORAD ID | 27612 |
| Date fetched |
Epoch osculation |
Inc. [°] |
Ecc. | RA asc node [hr] |
Arg Peri. [°] |
Mean anom [°] |
Mean motion [rev/day] |
Abs. mag |
| Date fetched |
Epoch osculation |
Inc. [°] |
Ecc. | RA asc node [hr] |
Arg Peri. [°] |
Mean anom [°] |
Mean motion [rev/day] |
Abs. mag |
| 2026 May 08 17:57 | 2026 May 08 05:35:38 | 64.5537 | 0.00550 | 5.7126 | 254.0336 | 105.4710 | 14.85406 | – |
| 2026 May 07 17:58 | 2026 May 07 06:58:21 | 64.5535 | 0.00550 | 5.9077 | 254.1781 | 105.4710 | 14.85406 | – |
| 2026 May 06 17:57 | 2026 May 06 06:44:07 | 64.5534 | 0.00550 | 6.1167 | 254.3328 | 105.4710 | 14.85406 | – |
| 2026 May 05 17:57 | 2026 May 05 08:06:50 | 64.5533 | 0.00551 | 6.3118 | 254.4765 | 105.4710 | 14.85406 | – |
| 2026 May 04 17:57 | 2026 May 04 06:15:40 | 64.5531 | 0.00551 | 6.5348 | 254.6465 | 105.4710 | 14.85406 | – |
| 2026 May 03 17:57 | 2026 May 03 09:15:20 | 64.5530 | 0.00552 | 6.7160 | 254.7770 | 105.4710 | 14.85406 | – |
| 2026 May 02 17:57 | 2026 May 02 10:38:02 | 64.5529 | 0.00552 | 6.9111 | 254.9229 | 105.4710 | 14.85406 | – |
| 2026 May 01 17:56 | 2026 May 01 08:46:51 | 64.5528 | 0.00552 | 7.1341 | 255.0849 | 105.4710 | 14.85406 | – |
| 2026 Apr 30 17:56 | 2026 Apr 30 05:18:43 | 64.5527 | 0.00553 | 7.3710 | 255.2622 | 105.4710 | 14.85406 | – |
| 2026 Apr 29 17:57 | 2026 Apr 29 08:18:22 | 64.5526 | 0.00553 | 7.5522 | 255.3966 | 105.4710 | 14.85406 | – |
| 2026 Apr 28 17:56 | 2026 Apr 28 11:18:01 | 64.5525 | 0.00553 | 7.7334 | 255.5260 | 105.4710 | 14.85406 | – |
| 2026 Apr 27 17:58 | 2026 Apr 27 09:26:50 | 64.5524 | 0.00554 | 7.9564 | 255.6948 | 105.4710 | 14.85406 | – |
| 2026 Apr 26 17:58 | 2026 Apr 25 12:12:14 | 64.5523 | 0.00554 | 8.3466 | 255.9876 | 105.4710 | 14.85406 | – |
| 2026 Apr 25 17:58 | 2026 Apr 25 12:12:14 | 64.5523 | 0.00554 | 8.3466 | 255.9876 | 105.4710 | 14.85406 | – |
| 2026 Apr 24 17:59 | 2026 Apr 24 05:30:10 | 64.5524 | 0.00555 | 8.6114 | 256.1847 | 105.4710 | 14.85406 | – |
| 2026 Apr 23 17:57 | 2026 Apr 23 00:25:04 | 64.5525 | 0.00555 | 8.8623 | 256.3718 | 105.4710 | 14.85406 | – |
| 2026 Apr 22 17:57 | 2026 Apr 22 03:24:42 | 64.5526 | 0.00555 | 9.0435 | 256.5020 | 105.4710 | 14.85406 | – |
| 2026 Apr 21 17:57 | 2026 Apr 21 09:38:15 | 64.5527 | 0.00556 | 9.1968 | 256.6164 | 105.4710 | 14.85406 | – |
| 2026 Apr 20 17:57 | 2026 Apr 20 11:00:57 | 64.5528 | 0.00556 | 9.3919 | 256.7588 | 105.4710 | 14.85406 | – |
| 2026 Apr 19 17:58 | 2026 Apr 19 12:23:38 | 64.5529 | 0.00556 | 9.5870 | 256.8995 | 105.4710 | 14.85406 | – |
| 2026 Apr 18 17:56 | 2026 Apr 18 02:27:40 | 64.5530 | 0.00557 | 9.8796 | 257.1044 | 105.4710 | 14.85406 | – |
| 2026 Apr 16 17:57 | 2026 Apr 16 06:49:59 | 64.5532 | 0.00557 | 10.2559 | 257.3708 | 105.4710 | 14.85406 | – |
| 2026 Apr 14 17:57 | 2026 Apr 14 12:49:16 | 64.5534 | 0.00558 | 10.6183 | 257.6302 | 105.4710 | 14.85406 | – |
| 2026 Apr 13 17:57 | 2026 Apr 13 06:07:11 | 64.5537 | 0.00558 | 10.8830 | 257.8160 | 105.4710 | 14.85406 | – |
| 2026 Apr 12 17:57 | 2026 Apr 12 12:20:43 | 64.5539 | 0.00558 | 11.0363 | 257.9291 | 105.4710 | 14.85406 | – |
| 2026 Apr 11 17:57 | 2026 Apr 11 10:29:30 | 64.5541 | 0.00559 | 11.2593 | 258.0804 | 105.4710 | 14.85406 | – |